sensor_id;sensor_type;location;lat;lon;timestamp;pressure;altitude;pressure_sealevel;temperature;humidity
69955;BME280;57279;55.912;37.490;2023-03-03T00:01:08;97880.81;;;-0.74;76.26
69955;BME280;57279;55.912;37.490;2023-03-03T00:03:34;97876.47;;;-0.69;76.18
69955;BME280;57279;55.912;37.490;2023-03-03T00:06:02;97872.13;;;-0.63;76.10
69955;BME280;57279;55.912;37.490;2023-03-03T00:08:28;97865.75;;;-0.74;76.20
69955;BME280;57279;55.912;37.490;2023-03-03T00:10:54;97863.38;;;-0.64;76.02
69955;BME280;57279;55.912;37.490;2023-03-03T00:13:22;97877.56;;;-0.58;75.88
69955;BME280;57279;55.912;37.490;2023-03-03T00:15:48;97862.47;;;-0.57;76.04
69955;BME280;57279;55.912;37.490;2023-03-03T00:20:57;97860.19;;;-0.54;76.07
69955;BME280;57279;55.912;37.490;2023-03-03T00:26:12;97836.34;;;-0.72;76.95
69955;BME280;57279;55.912;37.490;2023-03-03T00:28:49;97837.19;;;-0.72;77.07
69955;BME280;57279;55.912;37.490;2023-03-03T00:31:18;97834.31;;;-0.70;77.13
69955;BME280;57279;55.912;37.490;2023-03-03T00:33:49;97831.53;;;-0.75;77.44
69955;BME280;57279;55.912;37.490;2023-03-03T00:36:35;97820.03;;;-0.88;77.86
69955;BME280;57279;55.912;37.490;2023-03-03T00:39:30;97819.75;;;-0.80;77.61
69955;BME280;57279;55.912;37.490;2023-03-03T00:41:58;97810.69;;;-0.72;77.66
69955;BME280;57279;55.912;37.490;2023-03-03T00:46:51;97813.78;;;-0.75;77.80
69955;BME280;57279;55.912;37.490;2023-03-03T00:49:23;97815.16;;;-0.72;77.71
69955;BME280;57279;55.912;37.490;2023-03-03T00:51:51;97803.38;;;-0.76;78.00
69955;BME280;57279;55.912;37.490;2023-03-03T00:54:17;97802.25;;;-0.69;78.39
69955;BME280;57279;55.912;37.490;2023-03-03T00:56:43;97808.94;;;-0.78;78.69
69955;BME280;57279;55.912;37.490;2023-03-03T00:59:09;97804.88;;;-0.81;78.87
69955;BME280;57279;55.912;37.490;2023-03-03T01:01:35;97793.25;;;-0.80;78.90
69955;BME280;57279;55.912;37.490;2023-03-03T01:04:01;97790.97;;;-0.76;78.97
69955;BME280;57279;55.912;37.490;2023-03-03T01:06:26;97801.59;;;-0.64;78.75
69955;BME280;57279;55.912;37.490;2023-03-03T01:08:52;97802.44;;;-0.52;78.66
69955;BME280;57279;55.912;37.490;2023-03-03T01:11:21;97798.19;;;-0.53;78.49
69955;BME280;57279;55.912;37.490;2023-03-03T01:13:49;97806.22;;;-0.60;78.66
69955;BME280;57279;55.912;37.490;2023-03-03T01:16:16;97803.94;;;-0.56;78.81
69955;BME280;57279;55.912;37.490;2023-03-03T01:18:42;97788.94;;;-0.62;78.74
69955;BME280;57279;55.912;37.490;2023-03-03T01:21:08;97789.00;;;-0.69;79.01
69955;BME280;57279;55.912;37.490;2023-03-03T01:23:34;97791.22;;;-0.66;79.18
69955;BME280;57279;55.912;37.490;2023-03-03T01:26:00;97789.69;;;-0.73;79.28
69955;BME280;57279;55.912;37.490;2023-03-03T01:28:26;97786.50;;;-0.64;79.57
69955;BME280;57279;55.912;37.490;2023-03-03T01:30:51;97788.97;;;-0.50;79.52
69955;BME280;57279;55.912;37.490;2023-03-03T01:33:17;97785.16;;;-0.54;79.38
69955;BME280;57279;55.912;37.490;2023-03-03T01:35:45;97781.44;;;-0.53;79.49
69955;BME280;57279;55.912;37.490;2023-03-03T01:38:11;97788.50;;;-0.59;79.59
69955;BME280;57279;55.912;37.490;2023-03-03T01:40:37;97783.84;;;-0.64;79.71
69955;BME280;57279;55.912;37.490;2023-03-03T01:43:03;97784.44;;;-0.62;79.61
69955;BME280;57279;55.912;37.490;2023-03-03T01:46:20;97778.31;;;-0.62;79.71
69955;BME280;57279;55.912;37.490;2023-03-03T01:48:39;97776.06;;;-0.47;79.63
69955;BME280;57279;55.912;37.490;2023-03-03T01:51:32;97774.91;;;-0.39;79.32
69955;BME280;57279;55.912;37.490;2023-03-03T01:54:03;97767.84;;;-0.57;79.63
69955;BME280;57279;55.912;37.490;2023-03-03T01:56:29;97764.38;;;-0.57;79.55
69955;BME280;57279;55.912;37.490;2023-03-03T01:59:04;97765.72;;;-0.67;79.70
69955;BME280;57279;55.912;37.490;2023-03-03T02:01:32;97754.09;;;-0.66;80.04
69955;BME280;57279;55.912;37.490;2023-03-03T02:03:59;97754.47;;;-0.62;79.73
69955;BME280;57279;55.912;37.490;2023-03-03T02:06:26;97751.13;;;-0.57;79.73
69955;BME280;57279;55.912;37.490;2023-03-03T02:11:35;97751.69;;;-0.67;79.90
69955;BME280;57279;55.912;37.490;2023-03-03T02:14:02;97747.09;;;-0.60;79.75
69955;BME280;57279;55.912;37.490;2023-03-03T02:16:28;97740.78;;;-0.59;79.99
69955;BME280;57279;55.912;37.490;2023-03-03T02:18:54;97744.25;;;-0.47;79.34
69955;BME280;57279;55.912;37.490;2023-03-03T02:21:22;97722.44;;;-0.49;79.51
69955;BME280;57279;55.912;37.490;2023-03-03T02:26:38;97720.25;;;-0.52;79.18
69955;BME280;57279;55.912;37.490;2023-03-03T02:29:08;97717.50;;;-0.45;79.58
69955;BME280;57279;55.912;37.490;2023-03-03T02:31:35;97714.16;;;-0.41;79.26
69955;BME280;57279;55.912;37.490;2023-03-03T02:34:02;97720.97;;;-0.33;79.08
69955;BME280;57279;55.912;37.490;2023-03-03T02:36:30;97719.81;;;-0.25;78.75
69955;BME280;57279;55.912;37.490;2023-03-03T02:41:54;97720.03;;;-0.38;78.81
69955;BME280;57279;55.912;37.490;2023-03-03T02:44:30;97713.22;;;-0.58;79.29
69955;BME280;57279;55.912;37.490;2023-03-03T02:46:58;97709.75;;;-0.58;79.62
69955;BME280;57279;55.912;37.490;2023-03-03T02:49:29;97711.34;;;-0.57;79.61
69955;BME280;57279;55.912;37.490;2023-03-03T02:51:57;97711.63;;;-0.35;79.29
69955;BME280;57279;55.912;37.490;2023-03-03T02:54:26;97705.88;;;-0.32;78.97
69955;BME280;57279;55.912;37.490;2023-03-03T02:56:52;97705.41;;;-0.17;78.62
69955;BME280;57279;55.912;37.490;2023-03-03T02:59:19;97710.47;;;-0.28;78.51
69955;BME280;57279;55.912;37.490;2023-03-03T03:01:47;97715.31;;;-0.36;78.89
69955;BME280;57279;55.912;37.490;2023-03-03T03:04:18;97719.81;;;-0.25;78.83
69955;BME280;57279;55.912;37.490;2023-03-03T03:06:47;97718.91;;;-0.07;78.45
69955;BME280;57279;55.912;37.490;2023-03-03T03:09:15;97716.56;;;-0.15;78.47
69955;BME280;57279;55.912;37.490;2023-03-03T03:11:42;97711.97;;;-0.08;78.25
69955;BME280;57279;55.912;37.490;2023-03-03T03:14:09;97710.03;;;-0.13;78.23
69955;BME280;57279;55.912;37.490;2023-03-03T03:16:36;97707.94;;;-0.11;78.20
69955;BME280;57279;55.912;37.490;2023-03-03T03:19:04;97705.16;;;-0.04;78.42
69955;BME280;57279;55.912;37.490;2023-03-03T03:21:31;97710.94;;;-0.07;78.40
69955;BME280;57279;55.912;37.490;2023-03-03T03:23:57;97703.34;;;-0.04;78.31
69955;BME280;57279;55.912;37.490;2023-03-03T03:26:23;97701.72;;;-0.05;78.77
69955;BME280;57279;55.912;37.490;2023-03-03T03:28:50;97695.13;;;-0.14;79.11
69955;BME280;57279;55.912;37.490;2023-03-03T03:31:17;97697.31;;;0.01;78.82
69955;BME280;57279;55.912;37.490;2023-03-03T03:33:44;97691.22;;;-0.11;79.11
69955;BME280;57279;55.912;37.490;2023-03-03T03:36:11;97684.06;;;-0.11;79.25
69955;BME280;57279;55.912;37.490;2023-03-03T03:38:37;97681.41;;;-0.11;79.29
69955;BME280;57279;55.912;37.490;2023-03-03T03:41:06;97687.31;;;-0.21;79.20
69955;BME280;57279;55.912;37.490;2023-03-03T03:43:32;97685.22;;;-0.18;79.36
69955;BME280;57279;55.912;37.490;2023-03-03T03:45:59;97679.59;;;-0.34;79.73
69955;BME280;57279;55.912;37.490;2023-03-03T03:48:25;97688.47;;;-0.28;79.99
69955;BME280;57279;55.912;37.490;2023-03-03T03:50:51;97685.56;;;-0.27;80.02
69955;BME280;57279;55.912;37.490;2023-03-03T03:53:18;97679.22;;;-0.26;80.06
69955;BME280;57279;55.912;37.490;2023-03-03T03:55:45;97675.19;;;-0.28;80.35
69955;BME280;57279;55.912;37.490;2023-03-03T03:58:13;97680.50;;;-0.28;80.16
69955;BME280;57279;55.912;37.490;2023-03-03T04:00:40;97670.78;;;-0.34;80.12
69955;BME280;57279;55.912;37.490;2023-03-03T04:03:07;97666.19;;;-0.39;80.58
69955;BME280;57279;55.912;37.490;2023-03-03T04:05:33;97672.88;;;-0.36;80.75
69955;BME280;57279;55.912;37.490;2023-03-03T04:07:59;97664.81;;;-0.42;80.76
69955;BME280;57279;55.912;37.490;2023-03-03T04:10:26;97665.84;;;-0.43;80.84
69955;BME280;57279;55.912;37.490;2023-03-03T04:12:52;97670.56;;;-0.33;80.95
69955;BME280;57279;55.912;37.490;2023-03-03T04:15:17;97661.34;;;-0.54;81.04
69955;BME280;57279;55.912;37.490;2023-03-03T04:17:43;97663.53;;;-0.39;80.82
69955;BME280;57279;55.912;37.490;2023-03-03T04:20:12;97663.53;;;-0.51;80.96
69955;BME280;57279;55.912;37.490;2023-03-03T04:22:38;97652.25;;;-0.46;81.21
69955;BME280;57279;55.912;37.490;2023-03-03T04:25:05;97658.69;;;-0.42;81.16
69955;BME280;57279;55.912;37.490;2023-03-03T04:27:36;97657.31;;;-0.33;80.92
69955;BME280;57279;55.912;37.490;2023-03-03T04:30:04;97659.16;;;-0.33;80.85
69955;BME280;57279;55.912;37.490;2023-03-03T04:32:31;97648.31;;;-0.32;80.81
69955;BME280;57279;55.912;37.490;2023-03-03T04:35:00;97653.84;;;-0.22;80.78
69955;BME280;57279;55.912;37.490;2023-03-03T04:37:26;97653.84;;;-0.33;80.46
69955;BME280;57279;55.912;37.490;2023-03-03T04:39:52;97655.94;;;-0.35;80.72
69955;BME280;57279;55.912;37.490;2023-03-03T04:42:17;97657.28;;;-0.21;80.45
69955;BME280;57279;55.912;37.490;2023-03-03T04:44:43;97660.66;;;-0.26;80.45
69955;BME280;57279;55.912;37.490;2023-03-03T04:47:09;97654.22;;;-0.30;80.63
69955;BME280;57279;55.912;37.490;2023-03-03T04:49:35;97657.06;;;-0.20;80.63
69955;BME280;57279;55.912;37.490;2023-03-03T04:52:01;97650.84;;;-0.25;80.37
69955;BME280;57279;55.912;37.490;2023-03-03T04:54:28;97652.69;;;-0.14;80.20
69955;BME280;57279;55.912;37.490;2023-03-03T04:56:53;97656.38;;;-0.27;80.20
69955;BME280;57279;55.912;37.490;2023-03-03T04:59:19;97659.94;;;-0.21;80.37
69955;BME280;57279;55.912;37.490;2023-03-03T05:01:45;97653.84;;;-0.10;80.38
69955;BME280;57279;55.912;37.490;2023-03-03T05:04:12;97661.00;;;-0.10;79.83
69955;BME280;57279;55.912;37.490;2023-03-03T05:06:38;97668.59;;;-0.02;80.19
69955;BME280;57279;55.912;37.490;2023-03-03T05:09:03;97665.13;;;-0.03;80.12
69955;BME280;57279;55.912;37.490;2023-03-03T05:11:29;97664.44;;;0.02;79.85
69955;BME280;57279;55.912;37.490;2023-03-03T05:13:57;97665.16;;;-0.14;80.19
69955;BME280;57279;55.912;37.490;2023-03-03T05:16:22;97673.56;;;-0.06;79.93
69955;BME280;57279;55.912;37.490;2023-03-03T05:18:48;97673.81;;;-0.07;79.88
69955;BME280;57279;55.912;37.490;2023-03-03T05:21:14;97666.88;;;-0.08;79.81
69955;BME280;57279;55.912;37.490;2023-03-03T05:23:40;97668.13;;;0.01;79.93
69955;BME280;57279;55.912;37.490;2023-03-03T05:26:05;97677.78;;;0.19;79.44
69955;BME280;57279;55.912;37.490;2023-03-03T05:28:32;97671.25;;;0.10;79.43
69955;BME280;57279;55.912;37.490;2023-03-03T05:30:57;97670.53;;;0.14;79.13
69955;BME280;57279;55.912;37.490;2023-03-03T05:33:23;97671.69;;;0.18;79.09
69955;BME280;57279;55.912;37.490;2023-03-03T05:35:55;97674.03;;;-0.09;78.90
69955;BME280;57279;55.912;37.490;2023-03-03T05:38:22;97668.72;;;-0.09;78.69
69955;BME280;57279;55.912;37.490;2023-03-03T05:40:48;97674.38;;;-0.05;78.73
69955;BME280;57279;55.912;37.490;2023-03-03T05:43:14;97674.25;;;0.02;78.01
69955;BME280;57279;55.912;37.490;2023-03-03T05:45:40;97677.72;;;0.02;77.99
69955;BME280;57279;55.912;37.490;2023-03-03T05:48:06;97668.47;;;0.05;77.99
69955;BME280;57279;55.912;37.490;2023-03-03T05:50:31;97678.16;;;0.11;77.61
69955;BME280;57279;55.912;37.490;2023-03-03T05:52:57;97675.84;;;0.14;77.08
69955;BME280;57279;55.912;37.490;2023-03-03T05:55:24;97672.28;;;0.09;77.23
69955;BME280;57279;55.912;37.490;2023-03-03T05:57:49;97672.72;;;0.06;77.18
69955;BME280;57279;55.912;37.490;2023-03-03T06:00:16;97672.28;;;0.09;77.92
69955;BME280;57279;55.912;37.490;2023-03-03T06:02:42;97681.38;;;0.13;77.47
69955;BME280;57279;55.912;37.490;2023-03-03T06:05:08;97680.59;;;0.01;77.36
69955;BME280;57279;55.912;37.490;2023-03-03T06:07:34;97682.19;;;0.02;77.59
69955;BME280;57279;55.912;37.490;2023-03-03T06:10:00;97675.81;;;0.26;77.59
69955;BME280;57279;55.912;37.490;2023-03-03T06:12:27;97674.66;;;0.22;76.54
69955;BME280;57279;55.912;37.490;2023-03-03T06:14:52;97684.06;;;0.01;77.01
69955;BME280;57279;55.912;37.490;2023-03-03T06:17:18;97690.47;;;0.29;76.95
69955;BME280;57279;55.912;37.490;2023-03-03T06:19:44;97687.47;;;0.37;76.25
69955;BME280;57279;55.912;37.490;2023-03-03T06:22:09;97688.03;;;0.39;76.37
69955;BME280;57279;55.912;37.490;2023-03-03T06:24:35;97678.78;;;0.42;76.02
69955;BME280;57279;55.912;37.490;2023-03-03T06:27:01;97692.28;;;0.52;75.76
69955;BME280;57279;55.912;37.490;2023-03-03T06:29:27;97695.56;;;0.59;75.14
69955;BME280;57279;55.912;37.490;2023-03-03T06:31:53;97681.72;;;0.57;75.04
69955;BME280;57279;55.912;37.490;2023-03-03T06:34:19;97691.22;;;0.53;74.67
69955;BME280;57279;55.912;37.490;2023-03-03T06:36:44;97681.34;;;0.36;74.96
69955;BME280;57279;55.912;37.490;2023-03-03T06:39:10;97684.22;;;0.35;74.99
69955;BME280;57279;55.912;37.490;2023-03-03T06:41:36;97682.84;;;0.32;74.67
69955;BME280;57279;55.912;37.490;2023-03-03T06:44:02;97687.88;;;0.57;74.85
69955;BME280;57279;55.912;37.490;2023-03-03T06:46:27;97687.03;;;0.57;73.92
69955;BME280;57279;55.912;37.490;2023-03-03T06:48:53;97685.00;;;0.47;73.56
69955;BME280;57279;55.912;37.490;2023-03-03T06:51:22;97693.53;;;0.49;74.05
69955;BME280;57279;55.912;37.490;2023-03-03T06:53:56;97692.88;;;0.42;74.05
69955;BME280;57279;55.912;37.490;2023-03-03T06:56:26;97687.56;;;0.42;74.25
69955;BME280;57279;55.912;37.490;2023-03-03T06:58:55;97689.38;;;0.53;73.34
69955;BME280;57279;55.912;37.490;2023-03-03T07:01:22;97692.88;;;0.42;73.56
69955;BME280;57279;55.912;37.490;2023-03-03T07:03:48;97691.03;;;0.43;73.19
69955;BME280;57279;55.912;37.490;2023-03-03T07:06:24;97697.28;;;0.36;73.63
69955;BME280;57279;55.912;37.490;2023-03-03T07:08:51;97700.34;;;0.45;73.91
69955;BME280;57279;55.912;37.490;2023-03-03T07:11:22;97701.75;;;0.36;73.67
69955;BME280;57279;55.912;37.490;2023-03-03T07:13:50;97699.09;;;0.36;74.02
69955;BME280;57279;55.912;37.490;2023-03-03T07:16:17;97701.22;;;0.22;73.85
69955;BME280;57279;55.912;37.490;2023-03-03T07:18:56;97701.00;;;0.12;74.00
69955;BME280;57279;55.912;37.490;2023-03-03T07:21:33;97699.84;;;0.19;74.04
69955;BME280;57279;55.912;37.490;2023-03-03T07:24:00;97699.03;;;0.31;74.06
69955;BME280;57279;55.912;37.490;2023-03-03T07:28:55;97701.88;;;0.41;73.23
69955;BME280;57279;55.912;37.490;2023-03-03T07:31:37;97707.06;;;0.48;73.49
69955;BME280;57279;55.912;37.490;2023-03-03T07:34:23;97698.75;;;0.44;73.05
69955;BME280;57279;55.912;37.490;2023-03-03T07:36:53;97697.94;;;0.44;73.33
69955;BME280;57279;55.912;37.490;2023-03-03T07:41:44;97702.47;;;0.31;73.42
69955;BME280;57279;55.912;37.490;2023-03-03T07:44:19;97704.53;;;0.41;73.25
69955;BME280;57279;55.912;37.490;2023-03-03T07:46:46;97704.88;;;0.45;72.98
69955;BME280;57279;55.912;37.490;2023-03-03T07:49:33;97715.44;;;0.56;72.88
69955;BME280;57279;55.912;37.490;2023-03-03T07:52:01;97708.16;;;0.64;72.49
69955;BME280;57279;55.912;37.490;2023-03-03T07:54:42;97710.13;;;0.56;73.30
69955;BME280;57279;55.912;37.490;2023-03-03T08:07:50;97720.72;;;0.80;72.25
69955;BME280;57279;55.912;37.490;2023-03-03T08:10:34;97716.59;;;0.61;72.17
69955;BME280;57279;55.912;37.490;2023-03-03T08:13:08;97721.56;;;0.69;72.46
69955;BME280;57279;55.912;37.490;2023-03-03T08:15:39;97727.78;;;0.63;72.16
69955;BME280;57279;55.912;37.490;2023-03-03T08:18:26;97714.00;;;0.77;72.26
69955;BME280;57279;55.912;37.490;2023-03-03T08:20:58;97724.72;;;0.54;71.92
69955;BME280;57279;55.912;37.490;2023-03-03T08:23:24;97720.66;;;0.51;72.26
69955;BME280;57279;55.912;37.490;2023-03-03T08:25:51;97725.19;;;0.39;72.52
69955;BME280;57279;55.912;37.490;2023-03-03T08:28:17;97721.03;;;0.43;73.12
69955;BME280;57279;55.912;37.490;2023-03-03T08:30:43;97730.03;;;0.54;72.93
69955;BME280;57279;55.912;37.490;2023-03-03T08:33:09;97727.56;;;0.64;72.84
69955;BME280;57279;55.912;37.490;2023-03-03T08:35:37;97721.81;;;0.55;72.65
69955;BME280;57279;55.912;37.490;2023-03-03T08:38:03;97730.44;;;0.74;72.98
69955;BME280;57279;55.912;37.490;2023-03-03T08:40:30;97727.06;;;0.79;72.86
69955;BME280;57279;55.912;37.490;2023-03-03T08:42:55;97731.81;;;0.77;72.32
69955;BME280;57279;55.912;37.490;2023-03-03T08:45:23;97732.25;;;0.86;72.30
69955;BME280;57279;55.912;37.490;2023-03-03T08:47:49;97733.16;;;0.80;72.59
69955;BME280;57279;55.912;37.490;2023-03-03T08:50:16;97732.72;;;0.83;72.71
69955;BME280;57279;55.912;37.490;2023-03-03T08:52:42;97743.44;;;0.88;72.24
69955;BME280;57279;55.912;37.490;2023-03-03T08:55:08;97730.63;;;0.85;72.22
69955;BME280;57279;55.912;37.490;2023-03-03T08:57:34;97733.22;;;0.96;72.25
69955;BME280;57279;55.912;37.490;2023-03-03T09:00:00;97737.84;;;1.18;71.74
69955;BME280;57279;55.912;37.490;2023-03-03T09:02:25;97732.41;;;1.25;71.46
69955;BME280;57279;55.912;37.490;2023-03-03T09:04:51;97736.72;;;1.14;71.28
69955;BME280;57279;55.912;37.490;2023-03-03T09:07:16;97738.28;;;1.27;71.09
69955;BME280;57279;55.912;37.490;2023-03-03T09:09:42;97733.06;;;1.32;70.58
69955;BME280;57279;55.912;37.490;2023-03-03T09:12:32;97733.97;;;1.38;70.91
69955;BME280;57279;55.912;37.490;2023-03-03T09:15:37;97732.69;;;1.57;70.60
69955;BME280;57279;55.912;37.490;2023-03-03T09:18:28;97742.19;;;1.53;70.86
69955;BME280;57279;55.912;37.490;2023-03-03T09:20:56;97730.13;;;1.62;70.89
69955;BME280;57279;55.912;37.490;2023-03-03T09:26:20;97734.13;;;1.65;70.32
69955;BME280;57279;55.912;37.490;2023-03-03T09:28:43;97737.59;;;1.48;71.45
69955;BME280;57279;55.912;37.490;2023-03-03T09:31:23;97735.91;;;1.59;71.70
69955;BME280;57279;55.912;37.490;2023-03-03T09:33:49;97743.97;;;1.64;71.46
69955;BME280;57279;55.912;37.490;2023-03-03T09:38:45;97742.53;;;1.73;71.45
69955;BME280;57279;55.912;37.490;2023-03-03T09:44:06;97747.31;;;1.43;72.47
69955;BME280;57279;55.912;37.490;2023-03-03T09:49:30;97755.81;;;1.40;72.58
69955;BME280;57279;55.912;37.490;2023-03-03T10:12:01;97740.00;;;1.50;70.44
69955;BME280;57279;55.912;37.490;2023-03-03T10:15:26;97736.56;;;1.66;70.26
69955;BME280;57279;55.912;37.490;2023-03-03T10:20:44;97733.72;;;1.73;69.97
69955;BME280;57279;55.912;37.490;2023-03-03T10:25:52;97737.44;;;1.89;70.04
69955;BME280;57279;55.912;37.490;2023-03-03T10:34:47;97733.47;;;1.41;70.09
69955;BME280;57279;55.912;37.490;2023-03-03T10:40:17;97733.50;;;1.74;69.26
69955;BME280;57279;55.912;37.490;2023-03-03T10:42:48;97732.44;;;1.92;69.43
69955;BME280;57279;55.912;37.490;2023-03-03T11:03:46;97733.22;;;2.10;67.84
69955;BME280;57279;55.912;37.490;2023-03-03T11:12:16;97740.78;;;2.18;67.90
69955;BME280;57279;55.912;37.490;2023-03-03T11:15:07;97741.97;;;2.27;67.87
69955;BME280;57279;55.912;37.490;2023-03-03T11:17:57;97745.56;;;1.99;68.64
69955;BME280;57279;55.912;37.490;2023-03-03T11:20:37;97741.78;;;1.95;68.77
69955;BME280;57279;55.912;37.490;2023-03-03T11:26:25;97753.72;;;1.59;71.12
69955;BME280;57279;55.912;37.490;2023-03-03T11:31:40;97751.13;;;1.64;71.05
69955;BME280;57279;55.912;37.490;2023-03-03T11:37:04;97751.78;;;1.54;71.29
69955;BME280;57279;55.912;37.490;2023-03-03T11:39:32;97755.41;;;1.48;71.85
69955;BME280;57279;55.912;37.490;2023-03-03T11:42:27;97762.91;;;1.51;71.47
69955;BME280;57279;55.912;37.490;2023-03-03T11:44:51;97761.16;;;1.56;72.80
69955;BME280;57279;55.912;37.490;2023-03-03T11:47:33;97750.19;;;1.87;72.25
69955;BME280;57279;55.912;37.490;2023-03-03T11:55:37;97758.00;;;1.76;71.31
69955;BME280;57279;55.912;37.490;2023-03-03T11:58:26;97763.72;;;1.51;71.41
69955;BME280;57279;55.912;37.490;2023-03-03T12:03:52;97760.41;;;1.61;71.64
69955;BME280;57279;55.912;37.490;2023-03-03T12:09:02;97755.25;;;1.54;71.15
69955;BME280;57279;55.912;37.490;2023-03-03T12:14:23;97744.13;;;1.74;69.67
69955;BME280;57279;55.912;37.490;2023-03-03T12:17:05;97754.13;;;2.01;69.12
69955;BME280;57279;55.912;37.490;2023-03-03T12:22:47;97752.19;;;2.13;68.14
69955;BME280;57279;55.912;37.490;2023-03-03T12:25:40;97761.06;;;2.19;67.41
69955;BME280;57279;55.912;37.490;2023-03-03T12:28:22;97748.31;;;1.87;68.38
69955;BME280;57279;55.912;37.490;2023-03-03T12:47:05;97746.06;;;1.62;68.89
69955;BME280;57279;55.912;37.490;2023-03-03T12:50:05;97748.31;;;1.53;69.19
69955;BME280;57279;55.912;37.490;2023-03-03T13:06:43;97759.53;;;1.89;68.04
69955;BME280;57279;55.912;37.490;2023-03-03T13:17:18;97755.25;;;1.88;67.02
69955;BME280;57279;55.912;37.490;2023-03-03T13:20:00;97753.75;;;1.92;66.42
69955;BME280;57279;55.912;37.490;2023-03-03T13:22:45;97767.50;;;1.72;67.38
69955;BME280;57279;55.912;37.490;2023-03-03T13:28:01;97758.97;;;1.87;66.75
69955;BME280;57279;55.912;37.490;2023-03-03T13:30:34;97759.13;;;1.98;66.65
69955;BME280;57279;55.912;37.490;2023-03-03T13:33:14;97761.78;;;1.98;67.60
69955;BME280;57279;55.912;37.490;2023-03-03T13:35:49;97759.94;;;1.98;67.55
69955;BME280;57279;55.912;37.490;2023-03-03T13:38:33;97757.44;;;2.08;67.28
69955;BME280;57279;55.912;37.490;2023-03-03T13:41:05;97754.84;;;2.13;66.63
69955;BME280;57279;55.912;37.490;2023-03-03T14:06:27;97752.84;;;1.87;65.97
69955;BME280;57279;55.912;37.490;2023-03-03T14:12:01;97746.06;;;1.45;66.79
69955;BME280;57279;55.912;37.490;2023-03-03T14:14:49;97755.50;;;1.53;67.14
69955;BME280;57279;55.912;37.490;2023-03-03T14:20:02;97749.75;;;1.44;67.77
69955;BME280;57279;55.912;37.490;2023-03-03T14:22:48;97749.34;;;1.35;67.05
69955;BME280;57279;55.912;37.490;2023-03-03T14:25:16;97754.75;;;1.41;67.69
69955;BME280;57279;55.912;37.490;2023-03-03T14:30:31;97751.78;;;1.54;67.89
69955;BME280;57279;55.912;37.490;2023-03-03T14:35:42;97752.44;;;1.61;66.32
69955;BME280;57279;55.912;37.490;2023-03-03T14:40:35;97754.75;;;1.41;67.40
69955;BME280;57279;55.912;37.490;2023-03-03T14:43:17;97750.09;;;1.48;66.93
69955;BME280;57279;55.912;37.490;2023-03-03T14:45:43;97749.75;;;1.44;67.04
69955;BME280;57279;55.912;37.490;2023-03-03T14:53:32;97752.28;;;1.51;66.82
69955;BME280;57279;55.912;37.490;2023-03-03T14:59:22;97765.72;;;1.61;66.38
69955;BME280;57279;55.912;37.490;2023-03-03T15:04:41;97767.19;;;1.69;66.29
69955;BME280;57279;55.912;37.490;2023-03-03T15:07:37;97762.59;;;1.64;65.83
69955;BME280;57279;55.912;37.490;2023-03-03T15:10:05;97764.84;;;1.72;65.46
69955;BME280;57279;55.912;37.490;2023-03-03T15:17:53;97768.06;;;1.58;65.28
69955;BME280;57279;55.912;37.490;2023-03-03T15:20:36;97772.50;;;1.52;65.81
69955;BME280;57279;55.912;37.490;2023-03-03T15:28:38;97775.97;;;1.24;66.34
69955;BME280;57279;55.912;37.490;2023-03-03T15:36:37;97790.06;;;1.53;66.54
69955;BME280;57279;55.912;37.490;2023-03-03T15:42:06;97788.16;;;1.65;65.33
69955;BME280;57279;55.912;37.490;2023-03-03T15:47:21;97792.25;;;1.39;65.30
69955;BME280;57279;55.912;37.490;2023-03-03T15:55:05;97786.66;;;1.41;65.13
69955;BME280;57279;55.912;37.490;2023-03-03T16:00:21;97791.94;;;1.52;65.91
69955;BME280;57279;55.912;37.490;2023-03-03T16:02:54;97785.09;;;1.56;65.82
69955;BME280;57279;55.912;37.490;2023-03-03T16:05:25;97789.22;;;1.64;65.62
69955;BME280;57279;55.912;37.490;2023-03-03T16:08:24;97792.66;;;1.65;65.06
69955;BME280;57279;55.912;37.490;2023-03-03T16:13:58;97787.66;;;1.51;65.63
69955;BME280;57279;55.912;37.490;2023-03-03T16:19:55;97785.47;;;1.65;66.30
69955;BME280;57279;55.912;37.490;2023-03-03T16:28:22;97778.88;;;1.51;65.04
69955;BME280;57279;55.912;37.490;2023-03-03T16:36:05;97789.69;;;1.61;65.61
69955;BME280;57279;55.912;37.490;2023-03-03T16:41:06;97781.75;;;1.49;64.83
69955;BME280;57279;55.912;37.490;2023-03-03T16:51:49;97786.81;;;1.34;64.72
69955;BME280;57279;55.912;37.490;2023-03-03T16:54:32;97787.81;;;1.45;65.26
69955;BME280;57279;55.912;37.490;2023-03-03T16:57:14;97792.81;;;1.41;64.78
69955;BME280;57279;55.912;37.490;2023-03-03T17:03:31;97787.31;;;1.48;64.85
69955;BME280;57279;55.912;37.490;2023-03-03T17:08:22;97781.72;;;1.32;65.20
69955;BME280;57279;55.912;37.490;2023-03-03T17:16:12;97788.94;;;1.49;65.56
69955;BME280;57279;55.912;37.490;2023-03-03T17:24:52;97780.03;;;1.26;65.57
69955;BME280;57279;55.912;37.490;2023-03-03T17:30:15;97779.38;;;1.19;65.90
69955;BME280;57279;55.912;37.490;2023-03-03T17:43:44;97783.38;;;1.22;65.74
69955;BME280;57279;55.912;37.490;2023-03-03T17:46:29;97780.72;;;1.22;65.70
69955;BME280;57279;55.912;37.490;2023-03-03T18:02:36;97788.97;;;1.20;67.03
69955;BME280;57279;55.912;37.490;2023-03-03T18:10:34;97789.66;;;1.15;66.27
69955;BME280;57279;55.912;37.490;2023-03-03T18:13:16;97780.03;;;0.97;65.71
69955;BME280;57279;55.912;37.490;2023-03-03T18:19:16;97775.69;;;0.80;66.85
69955;BME280;57279;55.912;37.490;2023-03-03T18:21:54;97780.03;;;0.97;67.17
69955;BME280;57279;55.912;37.490;2023-03-03T18:27:35;97774.16;;;0.95;66.35
69955;BME280;57279;55.912;37.490;2023-03-03T18:35:31;97774.47;;;0.99;65.65
69955;BME280;57279;55.912;37.490;2023-03-03T18:38:22;97778.63;;;0.95;65.75
69955;BME280;57279;55.912;37.490;2023-03-03T18:46:06;97773.81;;;0.92;66.33
69955;BME280;57279;55.912;37.490;2023-03-03T18:51:11;97772.41;;;0.89;66.83
69955;BME280;57279;55.912;37.490;2023-03-03T18:53:58;97776.88;;;1.01;66.63
69955;BME280;57279;55.912;37.490;2023-03-03T19:04:40;97769.22;;;0.75;66.93
69955;BME280;57279;55.912;37.490;2023-03-03T19:12:10;97771.59;;;0.48;66.90